sensor_id;sensor_type;location;lat;lon;timestamp;P1;durP1;ratioP1;P2;durP2;ratioP2
66112;SDS011;52893;52.870;5.822;2023-05-10T00:02:06;27.80;;;9.65;;
66112;SDS011;52893;52.870;5.822;2023-05-10T00:04:35;22.80;;;9.40;;
66112;SDS011;52893;52.870;5.822;2023-05-10T00:07:02;24.23;;;10.45;;
66112;SDS011;52893;52.870;5.822;2023-05-10T00:09:29;27.60;;;11.40;;
66112;SDS011;52893;52.870;5.822;2023-05-10T00:11:56;24.83;;;10.02;;
66112;SDS011;52893;52.870;5.822;2023-05-10T00:14:24;23.80;;;10.07;;
66112;SDS011;52893;52.870;5.822;2023-05-10T00:16:51;22.35;;;9.25;;
66112;SDS011;52893;52.870;5.822;2023-05-10T00:19:19;25.98;;;10.07;;
66112;SDS011;52893;52.870;5.822;2023-05-10T00:21:47;26.52;;;9.43;;
66112;SDS011;52893;52.870;5.822;2023-05-10T00:24:14;22.92;;;10.30;;
66112;SDS011;52893;52.870;5.822;2023-05-10T00:26:42;17.55;;;8.10;;
66112;SDS011;52893;52.870;5.822;2023-05-10T00:29:09;14.48;;;8.20;;
66112;SDS011;52893;52.870;5.822;2023-05-10T00:31:36;25.08;;;9.60;;
66112;SDS011;52893;52.870;5.822;2023-05-10T00:34:04;17.70;;;8.55;;
66112;SDS011;52893;52.870;5.822;2023-05-10T00:36:31;16.33;;;8.40;;
66112;SDS011;52893;52.870;5.822;2023-05-10T00:38:59;21.67;;;8.98;;
66112;SDS011;52893;52.870;5.822;2023-05-10T00:41:27;21.25;;;9.15;;
66112;SDS011;52893;52.870;5.822;2023-05-10T00:43:54;18.80;;;9.40;;
66112;SDS011;52893;52.870;5.822;2023-05-10T00:46:22;21.63;;;9.48;;
66112;SDS011;52893;52.870;5.822;2023-05-10T00:48:50;17.55;;;7.93;;
66112;SDS011;52893;52.870;5.822;2023-05-10T00:51:17;11.82;;;6.90;;
66112;SDS011;52893;52.870;5.822;2023-05-10T00:53:45;12.95;;;6.28;;
66112;SDS011;52893;52.870;5.822;2023-05-10T00:56:14;9.43;;;6.30;;
66112;SDS011;52893;52.870;5.822;2023-05-10T00:58:42;12.95;;;6.50;;
66112;SDS011;52893;52.870;5.822;2023-05-10T01:01:09;12.20;;;7.07;;
66112;SDS011;52893;52.870;5.822;2023-05-10T01:03:37;12.73;;;6.72;;
66112;SDS011;52893;52.870;5.822;2023-05-10T01:06:06;12.73;;;6.95;;
66112;SDS011;52893;52.870;5.822;2023-05-10T01:08:35;11.57;;;7.18;;
66112;SDS011;52893;52.870;5.822;2023-05-10T01:11:03;13.85;;;8.40;;
66112;SDS011;52893;52.870;5.822;2023-05-10T01:13:33;14.57;;;9.23;;
66112;SDS011;52893;52.870;5.822;2023-05-10T01:16:01;13.95;;;8.70;;
66112;SDS011;52893;52.870;5.822;2023-05-10T01:18:29;15.15;;;9.02;;
66112;SDS011;52893;52.870;5.822;2023-05-10T01:20:59;13.45;;;7.63;;
66112;SDS011;52893;52.870;5.822;2023-05-10T01:23:44;12.82;;;7.90;;
66112;SDS011;52893;52.870;5.822;2023-05-10T01:26:26;15.35;;;8.88;;
66112;SDS011;52893;52.870;5.822;2023-05-10T01:29:13;14.25;;;9.05;;
66112;SDS011;52893;52.870;5.822;2023-05-10T01:32:01;16.38;;;9.38;;
66112;SDS011;52893;52.870;5.822;2023-05-10T01:34:40;17.20;;;8.60;;
66112;SDS011;52893;52.870;5.822;2023-05-10T01:37:15;14.98;;;8.52;;
66112;SDS011;52893;52.870;5.822;2023-05-10T01:39:49;16.02;;;8.82;;
66112;SDS011;52893;52.870;5.822;2023-05-10T01:42:25;15.02;;;9.38;;
66112;SDS011;52893;52.870;5.822;2023-05-10T01:44:58;17.75;;;9.80;;
66112;SDS011;52893;52.870;5.822;2023-05-10T01:47:31;19.15;;;10.55;;
66112;SDS011;52893;52.870;5.822;2023-05-10T01:50:04;16.25;;;10.02;;
66112;SDS011;52893;52.870;5.822;2023-05-10T01:52:36;15.68;;;10.05;;
66112;SDS011;52893;52.870;5.822;2023-05-10T01:55:08;14.98;;;9.55;;
66112;SDS011;52893;52.870;5.822;2023-05-10T01:57:40;19.02;;;9.75;;
66112;SDS011;52893;52.870;5.822;2023-05-10T02:00:10;14.20;;;9.18;;
66112;SDS011;52893;52.870;5.822;2023-05-10T02:02:44;17.25;;;9.68;;
66112;SDS011;52893;52.870;5.822;2023-05-10T02:05:14;16.33;;;8.87;;
66112;SDS011;52893;52.870;5.822;2023-05-10T02:07:42;13.10;;;9.05;;
66112;SDS011;52893;52.870;5.822;2023-05-10T02:10:11;12.82;;;8.35;;
66112;SDS011;52893;52.870;5.822;2023-05-10T02:12:41;13.35;;;8.02;;
66112;SDS011;52893;52.870;5.822;2023-05-10T02:15:10;16.42;;;8.38;;
66112;SDS011;52893;52.870;5.822;2023-05-10T02:17:39;12.55;;;7.95;;
66112;SDS011;52893;52.870;5.822;2023-05-10T02:20:10;14.18;;;8.02;;
66112;SDS011;52893;52.870;5.822;2023-05-10T02:22:39;12.93;;;8.10;;
66112;SDS011;52893;52.870;5.822;2023-05-10T02:25:08;14.55;;;7.80;;
66112;SDS011;52893;52.870;5.822;2023-05-10T02:27:38;12.20;;;7.57;;
66112;SDS011;52893;52.870;5.822;2023-05-10T02:30:08;12.60;;;6.80;;
66112;SDS011;52893;52.870;5.822;2023-05-10T02:32:36;10.48;;;6.97;;
66112;SDS011;52893;52.870;5.822;2023-05-10T02:35:07;9.23;;;6.85;;
66112;SDS011;52893;52.870;5.822;2023-05-10T02:37:36;11.00;;;7.20;;
66112;SDS011;52893;52.870;5.822;2023-05-10T02:40:05;10.73;;;6.18;;
66112;SDS011;52893;52.870;5.822;2023-05-10T02:42:35;11.25;;;6.65;;
66112;SDS011;52893;52.870;5.822;2023-05-10T02:45:05;15.52;;;6.82;;
66112;SDS011;52893;52.870;5.822;2023-05-10T02:47:35;13.40;;;7.10;;
66112;SDS011;52893;52.870;5.822;2023-05-10T02:50:02;10.48;;;6.90;;
66112;SDS011;52893;52.870;5.822;2023-05-10T02:52:36;13.68;;;7.05;;
66112;SDS011;52893;52.870;5.822;2023-05-10T02:55:07;10.00;;;6.70;;
66112;SDS011;52893;52.870;5.822;2023-05-10T02:57:37;12.57;;;6.78;;
66112;SDS011;52893;52.870;5.822;2023-05-10T03:00:10;15.45;;;7.78;;
66112;SDS011;52893;52.870;5.822;2023-05-10T03:02:38;16.00;;;7.18;;
66112;SDS011;52893;52.870;5.822;2023-05-10T03:05:05;13.18;;;6.68;;
66112;SDS011;52893;52.870;5.822;2023-05-10T03:07:32;10.35;;;6.72;;
66112;SDS011;52893;52.870;5.822;2023-05-10T03:10:02;12.43;;;7.18;;
66112;SDS011;52893;52.870;5.822;2023-05-10T03:12:32;11.48;;;7.03;;
66112;SDS011;52893;52.870;5.822;2023-05-10T03:15:08;11.85;;;7.28;;
66112;SDS011;52893;52.870;5.822;2023-05-10T03:17:41;14.10;;;7.40;;
66112;SDS011;52893;52.870;5.822;2023-05-10T03:20:16;15.30;;;7.85;;
66112;SDS011;52893;52.870;5.822;2023-05-10T03:22:50;14.82;;;6.88;;
66112;SDS011;52893;52.870;5.822;2023-05-10T03:25:21;13.13;;;7.25;;
66112;SDS011;52893;52.870;5.822;2023-05-10T03:27:52;14.20;;;7.85;;
66112;SDS011;52893;52.870;5.822;2023-05-10T03:30:21;17.25;;;8.13;;
66112;SDS011;52893;52.870;5.822;2023-05-10T03:32:48;14.45;;;7.28;;
66112;SDS011;52893;52.870;5.822;2023-05-10T03:35:17;16.45;;;7.72;;
66112;SDS011;52893;52.870;5.822;2023-05-10T03:37:44;15.77;;;7.85;;
66112;SDS011;52893;52.870;5.822;2023-05-10T03:40:12;17.40;;;8.40;;
66112;SDS011;52893;52.870;5.822;2023-05-10T03:42:43;16.83;;;9.13;;
66112;SDS011;52893;52.870;5.822;2023-05-10T03:45:11;17.73;;;8.55;;
66112;SDS011;52893;52.870;5.822;2023-05-10T03:47:38;16.35;;;8.00;;
66112;SDS011;52893;52.870;5.822;2023-05-10T03:50:06;16.42;;;8.25;;
66112;SDS011;52893;52.870;5.822;2023-05-10T03:52:33;14.63;;;8.75;;
66112;SDS011;52893;52.870;5.822;2023-05-10T03:55:01;15.38;;;8.18;;
66112;SDS011;52893;52.870;5.822;2023-05-10T03:57:29;16.23;;;8.70;;
66112;SDS011;52893;52.870;5.822;2023-05-10T03:59:58;15.25;;;7.90;;
66112;SDS011;52893;52.870;5.822;2023-05-10T04:02:25;18.90;;;8.32;;
66112;SDS011;52893;52.870;5.822;2023-05-10T04:04:52;11.35;;;6.80;;
66112;SDS011;52893;52.870;5.822;2023-05-10T04:07:20;11.00;;;7.03;;
66112;SDS011;52893;52.870;5.822;2023-05-10T04:09:47;11.80;;;7.28;;
66112;SDS011;52893;52.870;5.822;2023-05-10T04:12:14;14.52;;;8.35;;
66112;SDS011;52893;52.870;5.822;2023-05-10T04:14:41;14.85;;;6.55;;
66112;SDS011;52893;52.870;5.822;2023-05-10T04:17:10;13.88;;;6.63;;
66112;SDS011;52893;52.870;5.822;2023-05-10T04:19:37;13.35;;;6.85;;
66112;SDS011;52893;52.870;5.822;2023-05-10T04:22:04;7.85;;;5.30;;
66112;SDS011;52893;52.870;5.822;2023-05-10T04:24:32;14.40;;;6.03;;
66112;SDS011;52893;52.870;5.822;2023-05-10T04:26:59;7.95;;;5.40;;
66112;SDS011;52893;52.870;5.822;2023-05-10T04:29:26;10.25;;;6.03;;
66112;SDS011;52893;52.870;5.822;2023-05-10T04:31:53;11.23;;;6.07;;
66112;SDS011;52893;52.870;5.822;2023-05-10T04:34:23;12.50;;;6.82;;
66112;SDS011;52893;52.870;5.822;2023-05-10T04:36:51;11.95;;;6.88;;
66112;SDS011;52893;52.870;5.822;2023-05-10T04:39:18;15.35;;;7.60;;
66112;SDS011;52893;52.870;5.822;2023-05-10T04:41:45;12.00;;;7.55;;
66112;SDS011;52893;52.870;5.822;2023-05-10T04:44:12;14.95;;;7.45;;
66112;SDS011;52893;52.870;5.822;2023-05-10T04:46:40;16.55;;;7.63;;
66112;SDS011;52893;52.870;5.822;2023-05-10T04:49:07;15.63;;;7.82;;
66112;SDS011;52893;52.870;5.822;2023-05-10T04:51:36;15.93;;;9.00;;
66112;SDS011;52893;52.870;5.822;2023-05-10T04:54:03;16.38;;;8.50;;
66112;SDS011;52893;52.870;5.822;2023-05-10T04:56:30;13.73;;;7.40;;
66112;SDS011;52893;52.870;5.822;2023-05-10T04:58:57;16.27;;;8.45;;
66112;SDS011;52893;52.870;5.822;2023-05-10T05:01:25;12.63;;;8.02;;
66112;SDS011;52893;52.870;5.822;2023-05-10T05:03:52;15.98;;;9.00;;
66112;SDS011;52893;52.870;5.822;2023-05-10T05:06:19;24.48;;;9.20;;
66112;SDS011;52893;52.870;5.822;2023-05-10T05:08:48;17.55;;;8.85;;
66112;SDS011;52893;52.870;5.822;2023-05-10T05:11:15;20.55;;;9.68;;
66112;SDS011;52893;52.870;5.822;2023-05-10T05:13:43;17.40;;;9.60;;
66112;SDS011;52893;52.870;5.822;2023-05-10T05:16:10;18.75;;;9.88;;
66112;SDS011;52893;52.870;5.822;2023-05-10T05:18:37;19.30;;;9.77;;
66112;SDS011;52893;52.870;5.822;2023-05-10T05:21:12;19.15;;;9.68;;
66112;SDS011;52893;52.870;5.822;2023-05-10T05:23:40;16.05;;;8.77;;
66112;SDS011;52893;52.870;5.822;2023-05-10T05:26:09;16.50;;;9.68;;
66112;SDS011;52893;52.870;5.822;2023-05-10T05:28:36;16.75;;;9.10;;
66112;SDS011;52893;52.870;5.822;2023-05-10T05:31:04;19.08;;;8.13;;
66112;SDS011;52893;52.870;5.822;2023-05-10T05:33:33;21.50;;;8.98;;
66112;SDS011;52893;52.870;5.822;2023-05-10T05:36:00;21.05;;;8.18;;
66112;SDS011;52893;52.870;5.822;2023-05-10T05:38:28;23.90;;;8.25;;
66112;SDS011;52893;52.870;5.822;2023-05-10T05:40:55;20.35;;;7.88;;
66112;SDS011;52893;52.870;5.822;2023-05-10T05:43:24;22.52;;;8.00;;
66112;SDS011;52893;52.870;5.822;2023-05-10T05:45:51;22.23;;;7.18;;
66112;SDS011;52893;52.870;5.822;2023-05-10T05:48:19;18.52;;;8.00;;
66112;SDS011;52893;52.870;5.822;2023-05-10T05:50:46;20.25;;;7.13;;
66112;SDS011;52893;52.870;5.822;2023-05-10T05:53:14;28.23;;;8.13;;
66112;SDS011;52893;52.870;5.822;2023-05-10T05:55:50;27.98;;;7.90;;
66112;SDS011;52893;52.870;5.822;2023-05-10T05:58:18;25.08;;;8.65;;
66112;SDS011;52893;52.870;5.822;2023-05-10T06:00:46;24.65;;;8.27;;
66112;SDS011;52893;52.870;5.822;2023-05-10T06:03:13;25.20;;;9.02;;
66112;SDS011;52893;52.870;5.822;2023-05-10T06:05:41;24.50;;;8.77;;
66112;SDS011;52893;52.870;5.822;2023-05-10T06:08:08;25.42;;;8.68;;
66112;SDS011;52893;52.870;5.822;2023-05-10T06:10:35;26.83;;;8.07;;
66112;SDS011;52893;52.870;5.822;2023-05-10T06:13:03;21.20;;;8.45;;
66112;SDS011;52893;52.870;5.822;2023-05-10T06:15:30;22.85;;;8.52;;
66112;SDS011;52893;52.870;5.822;2023-05-10T06:17:59;26.08;;;9.43;;
66112;SDS011;52893;52.870;5.822;2023-05-10T06:20:26;24.65;;;9.85;;
66112;SDS011;52893;52.870;5.822;2023-05-10T06:22:54;24.33;;;9.57;;
66112;SDS011;52893;52.870;5.822;2023-05-10T06:25:21;28.60;;;10.50;;
66112;SDS011;52893;52.870;5.822;2023-05-10T06:27:48;25.35;;;9.35;;
66112;SDS011;52893;52.870;5.822;2023-05-10T06:30:15;33.70;;;10.70;;
66112;SDS011;52893;52.870;5.822;2023-05-10T06:32:43;30.92;;;10.38;;
66112;SDS011;52893;52.870;5.822;2023-05-10T06:35:12;27.20;;;10.30;;
66112;SDS011;52893;52.870;5.822;2023-05-10T06:37:39;32.10;;;10.70;;
66112;SDS011;52893;52.870;5.822;2023-05-10T06:40:07;32.25;;;11.95;;
66112;SDS011;52893;52.870;5.822;2023-05-10T06:42:35;27.48;;;11.00;;
66112;SDS011;52893;52.870;5.822;2023-05-10T06:45:03;31.92;;;12.18;;
66112;SDS011;52893;52.870;5.822;2023-05-10T06:47:31;28.90;;;11.23;;
66112;SDS011;52893;52.870;5.822;2023-05-10T06:49:58;29.50;;;12.00;;
66112;SDS011;52893;52.870;5.822;2023-05-10T06:52:27;29.63;;;12.55;;
66112;SDS011;52893;52.870;5.822;2023-05-10T06:54:54;30.02;;;11.63;;
66112;SDS011;52893;52.870;5.822;2023-05-10T06:57:21;31.67;;;11.93;;
66112;SDS011;52893;52.870;5.822;2023-05-10T06:59:48;26.85;;;10.45;;
66112;SDS011;52893;52.870;5.822;2023-05-10T07:02:15;29.60;;;11.93;;
66112;SDS011;52893;52.870;5.822;2023-05-10T07:04:43;28.33;;;12.57;;
66112;SDS011;52893;52.870;5.822;2023-05-10T07:07:10;32.20;;;12.07;;
66112;SDS011;52893;52.870;5.822;2023-05-10T07:09:39;28.30;;;12.52;;
66112;SDS011;52893;52.870;5.822;2023-05-10T07:12:06;25.25;;;11.10;;
66112;SDS011;52893;52.870;5.822;2023-05-10T07:14:33;32.60;;;12.85;;
66112;SDS011;52893;52.870;5.822;2023-05-10T07:17:00;34.33;;;13.95;;
66112;SDS011;52893;52.870;5.822;2023-05-10T07:19:28;36.00;;;14.20;;
66112;SDS011;52893;52.870;5.822;2023-05-10T07:21:58;39.25;;;14.48;;
66112;SDS011;52893;52.870;5.822;2023-05-10T07:24:25;35.58;;;14.48;;
66112;SDS011;52893;52.870;5.822;2023-05-10T07:26:53;33.10;;;14.10;;
66112;SDS011;52893;52.870;5.822;2023-05-10T07:29:21;37.58;;;14.63;;
66112;SDS011;52893;52.870;5.822;2023-05-10T07:31:48;29.88;;;13.20;;
66112;SDS011;52893;52.870;5.822;2023-05-10T07:34:15;32.38;;;13.40;;
66112;SDS011;52893;52.870;5.822;2023-05-10T07:36:42;27.25;;;10.98;;
66112;SDS011;52893;52.870;5.822;2023-05-10T07:39:10;28.33;;;13.20;;
66112;SDS011;52893;52.870;5.822;2023-05-10T07:41:37;28.50;;;13.52;;
66112;SDS011;52893;52.870;5.822;2023-05-10T07:44:05;25.77;;;12.13;;
66112;SDS011;52893;52.870;5.822;2023-05-10T07:46:33;21.10;;;10.93;;
66112;SDS011;52893;52.870;5.822;2023-05-10T07:49:00;20.63;;;10.52;;
66112;SDS011;52893;52.870;5.822;2023-05-10T07:51:27;21.92;;;10.25;;
66112;SDS011;52893;52.870;5.822;2023-05-10T07:53:55;16.35;;;9.00;;
66112;SDS011;52893;52.870;5.822;2023-05-10T07:56:24;16.90;;;8.70;;
66112;SDS011;52893;52.870;5.822;2023-05-10T07:58:53;15.35;;;7.82;;
66112;SDS011;52893;52.870;5.822;2023-05-10T08:01:22;13.70;;;6.78;;
66112;SDS011;52893;52.870;5.822;2023-05-10T08:03:49;13.00;;;6.57;;
66112;SDS011;52893;52.870;5.822;2023-05-10T08:06:19;9.48;;;3.95;;
66112;SDS011;52893;52.870;5.822;2023-05-10T08:08:46;5.32;;;2.53;;
66112;SDS011;52893;52.870;5.822;2023-05-10T08:11:16;7.93;;;4.90;;
66112;SDS011;52893;52.870;5.822;2023-05-10T08:13:49;12.02;;;6.07;;
66112;SDS011;52893;52.870;5.822;2023-05-10T08:16:24;12.48;;;5.90;;
66112;SDS011;52893;52.870;5.822;2023-05-10T08:18:51;8.90;;;5.13;;
66112;SDS011;52893;52.870;5.822;2023-05-10T08:21:20;8.55;;;4.80;;
66112;SDS011;52893;52.870;5.822;2023-05-10T08:23:48;7.07;;;4.47;;
66112;SDS011;52893;52.870;5.822;2023-05-10T08:26:15;10.10;;;6.10;;
66112;SDS011;52893;52.870;5.822;2023-05-10T08:28:42;8.07;;;5.35;;
66112;SDS011;52893;52.870;5.822;2023-05-10T08:31:09;17.30;;;6.90;;
66112;SDS011;52893;52.870;5.822;2023-05-10T08:33:38;16.60;;;8.50;;
66112;SDS011;52893;52.870;5.822;2023-05-10T08:36:06;22.40;;;10.45;;
66112;SDS011;52893;52.870;5.822;2023-05-10T08:38:33;18.90;;;10.00;;
66112;SDS011;52893;52.870;5.822;2023-05-10T08:41:00;18.65;;;9.57;;
66112;SDS011;52893;52.870;5.822;2023-05-10T08:43:29;17.45;;;9.57;;
66112;SDS011;52893;52.870;5.822;2023-05-10T08:45:59;17.65;;;9.02;;
66112;SDS011;52893;52.870;5.822;2023-05-10T08:48:27;25.17;;;10.77;;
66112;SDS011;52893;52.870;5.822;2023-05-10T08:50:57;14.25;;;8.80;;
66112;SDS011;52893;52.870;5.822;2023-05-10T08:53:28;15.25;;;8.48;;
66112;SDS011;52893;52.870;5.822;2023-05-10T08:55:56;13.40;;;8.07;;
66112;SDS011;52893;52.870;5.822;2023-05-10T08:58:24;14.18;;;8.88;;
66112;SDS011;52893;52.870;5.822;2023-05-10T09:00:52;13.40;;;7.93;;
66112;SDS011;52893;52.870;5.822;2023-05-10T09:03:19;16.13;;;9.20;;
66112;SDS011;52893;52.870;5.822;2023-05-10T09:05:47;13.77;;;8.23;;
66112;SDS011;52893;52.870;5.822;2023-05-10T09:08:17;13.23;;;7.03;;
66112;SDS011;52893;52.870;5.822;2023-05-10T09:10:45;12.68;;;7.03;;
66112;SDS011;52893;52.870;5.822;2023-05-10T09:13:13;12.63;;;7.18;;
66112;SDS011;52893;52.870;5.822;2023-05-10T09:15:43;7.13;;;4.75;;
66112;SDS011;52893;52.870;5.822;2023-05-10T09:18:10;9.70;;;5.68;;
66112;SDS011;52893;52.870;5.822;2023-05-10T09:20:37;8.25;;;5.53;;
66112;SDS011;52893;52.870;5.822;2023-05-10T09:23:05;6.03;;;4.45;;
66112;SDS011;52893;52.870;5.822;2023-05-10T09:25:33;5.93;;;4.53;;
66112;SDS011;52893;52.870;5.822;2023-05-10T09:28:01;5.53;;;3.72;;
66112;SDS011;52893;52.870;5.822;2023-05-10T09:30:29;8.55;;;5.32;;
66112;SDS011;52893;52.870;5.822;2023-05-10T09:32:57;7.18;;;5.07;;
66112;SDS011;52893;52.870;5.822;2023-05-10T09:35:27;9.85;;;6.45;;
66112;SDS011;52893;52.870;5.822;2023-05-10T09:37:56;11.13;;;5.50;;
66112;SDS011;52893;52.870;5.822;2023-05-10T09:40:25;8.82;;;6.20;;
66112;SDS011;52893;52.870;5.822;2023-05-10T09:42:56;10.77;;;5.97;;
66112;SDS011;52893;52.870;5.822;2023-05-10T09:45:24;11.05;;;6.32;;
66112;SDS011;52893;52.870;5.822;2023-05-10T09:47:53;13.45;;;6.18;;
66112;SDS011;52893;52.870;5.822;2023-05-10T09:50:20;15.15;;;7.18;;
66112;SDS011;52893;52.870;5.822;2023-05-10T09:52:49;14.20;;;7.35;;
66112;SDS011;52893;52.870;5.822;2023-05-10T09:55:18;13.40;;;7.30;;
66112;SDS011;52893;52.870;5.822;2023-05-10T09:57:47;14.18;;;7.65;;
66112;SDS011;52893;52.870;5.822;2023-05-10T10:00:28;18.17;;;9.10;;
66112;SDS011;52893;52.870;5.822;2023-05-10T10:03:01;15.00;;;8.35;;
66112;SDS011;52893;52.870;5.822;2023-05-10T10:05:29;15.43;;;8.07;;
66112;SDS011;52893;52.870;5.822;2023-05-10T10:07:57;14.70;;;7.30;;
66112;SDS011;52893;52.870;5.822;2023-05-10T10:10:25;17.88;;;7.00;;
66112;SDS011;52893;52.870;5.822;2023-05-10T10:12:53;17.38;;;8.55;;
66112;SDS011;52893;52.870;5.822;2023-05-10T10:15:23;13.13;;;6.78;;
66112;SDS011;52893;52.870;5.822;2023-05-10T10:17:51;9.13;;;5.95;;
66112;SDS011;52893;52.870;5.822;2023-05-10T10:20:19;14.23;;;6.55;;
66112;SDS011;52893;52.870;5.822;2023-05-10T10:22:48;14.75;;;6.90;;
66112;SDS011;52893;52.870;5.822;2023-05-10T10:25:16;13.05;;;6.47;;
66112;SDS011;52893;52.870;5.822;2023-05-10T10:27:45;15.80;;;8.25;;
66112;SDS011;52893;52.870;5.822;2023-05-10T10:30:25;16.13;;;7.78;;
66112;SDS011;52893;52.870;5.822;2023-05-10T10:33:06;10.07;;;6.35;;
66112;SDS011;52893;52.870;5.822;2023-05-10T10:35:44;15.95;;;8.45;;
66112;SDS011;52893;52.870;5.822;2023-05-10T10:38:13;17.27;;;10.00;;
66112;SDS011;52893;52.870;5.822;2023-05-10T10:40:40;16.98;;;8.68;;
66112;SDS011;52893;52.870;5.822;2023-05-10T10:43:21;16.33;;;9.63;;
66112;SDS011;52893;52.870;5.822;2023-05-10T10:48:49;17.92;;;8.90;;
66112;SDS011;52893;52.870;5.822;2023-05-10T10:51:36;12.32;;;6.95;;
66112;SDS011;52893;52.870;5.822;2023-05-10T10:54:08;17.20;;;10.18;;
66112;SDS011;52893;52.870;5.822;2023-05-10T10:56:36;13.02;;;7.65;;
66112;SDS011;52893;52.870;5.822;2023-05-10T10:59:03;12.63;;;7.22;;
66112;SDS011;52893;52.870;5.822;2023-05-10T11:01:33;15.18;;;8.02;;
66112;SDS011;52893;52.870;5.822;2023-05-10T11:04:17;16.00;;;9.00;;
66112;SDS011;52893;52.870;5.822;2023-05-10T11:06:45;14.90;;;8.80;;
66112;SDS011;52893;52.870;5.822;2023-05-10T11:09:12;13.02;;;8.73;;
66112;SDS011;52893;52.870;5.822;2023-05-10T11:11:50;11.25;;;6.53;;
66112;SDS011;52893;52.870;5.822;2023-05-10T11:14:20;8.65;;;5.75;;
66112;SDS011;52893;52.870;5.822;2023-05-10T11:16:50;7.30;;;5.13;;
66112;SDS011;52893;52.870;5.822;2023-05-10T11:19:17;11.82;;;6.15;;
66112;SDS011;52893;52.870;5.822;2023-05-10T11:21:47;12.07;;;7.50;;
66112;SDS011;52893;52.870;5.822;2023-05-10T11:24:15;6.78;;;3.60;;
66112;SDS011;52893;52.870;5.822;2023-05-10T11:26:44;10.43;;;6.35;;
66112;SDS011;52893;52.870;5.822;2023-05-10T11:29:12;10.23;;;6.18;;
66112;SDS011;52893;52.870;5.822;2023-05-10T11:31:43;10.82;;;6.75;;
66112;SDS011;52893;52.870;5.822;2023-05-10T11:34:15;9.43;;;5.85;;
66112;SDS011;52893;52.870;5.822;2023-05-10T11:36:50;11.35;;;6.65;;
66112;SDS011;52893;52.870;5.822;2023-05-10T11:39:19;16.77;;;6.30;;
66112;SDS011;52893;52.870;5.822;2023-05-10T11:41:48;11.70;;;7.50;;
66112;SDS011;52893;52.870;5.822;2023-05-10T11:44:15;16.13;;;6.68;;
66112;SDS011;52893;52.870;5.822;2023-05-10T11:46:43;12.43;;;6.75;;
66112;SDS011;52893;52.870;5.822;2023-05-10T11:49:10;16.58;;;7.60;;
66112;SDS011;52893;52.870;5.822;2023-05-10T11:51:40;14.73;;;7.38;;
66112;SDS011;52893;52.870;5.822;2023-05-10T11:54:09;10.20;;;5.65;;
66112;SDS011;52893;52.870;5.822;2023-05-10T11:56:38;16.75;;;9.38;;
66112;SDS011;52893;52.870;5.822;2023-05-10T11:59:07;12.95;;;7.90;;
66112;SDS011;52893;52.870;5.822;2023-05-10T12:01:34;13.77;;;8.05;;
66112;SDS011;52893;52.870;5.822;2023-05-10T12:04:03;13.65;;;8.32;;
66112;SDS011;52893;52.870;5.822;2023-05-10T12:06:31;16.05;;;8.98;;
66112;SDS011;52893;52.870;5.822;2023-05-10T12:09:06;15.77;;;8.85;;
66112;SDS011;52893;52.870;5.822;2023-05-10T12:11:36;13.07;;;9.00;;
66112;SDS011;52893;52.870;5.822;2023-05-10T12:14:04;15.48;;;7.93;;
66112;SDS011;52893;52.870;5.822;2023-05-10T12:16:32;17.50;;;9.40;;
66112;SDS011;52893;52.870;5.822;2023-05-10T12:19:00;18.05;;;9.10;;
66112;SDS011;52893;52.870;5.822;2023-05-10T12:21:27;16.58;;;8.85;;
66112;SDS011;52893;52.870;5.822;2023-05-10T12:23:59;13.65;;;6.90;;
66112;SDS011;52893;52.870;5.822;2023-05-10T12:26:29;14.93;;;8.75;;
66112;SDS011;52893;52.870;5.822;2023-05-10T12:29:11;13.82;;;9.02;;
66112;SDS011;52893;52.870;5.822;2023-05-10T12:31:49;10.95;;;7.47;;
66112;SDS011;52893;52.870;5.822;2023-05-10T12:34:22;9.48;;;5.65;;
66112;SDS011;52893;52.870;5.822;2023-05-10T12:36:51;10.05;;;6.10;;
66112;SDS011;52893;52.870;5.822;2023-05-10T12:39:19;11.00;;;5.93;;
66112;SDS011;52893;52.870;5.822;2023-05-10T12:41:47;13.93;;;6.65;;
66112;SDS011;52893;52.870;5.822;2023-05-10T12:44:14;8.73;;;5.82;;
66112;SDS011;52893;52.870;5.822;2023-05-10T12:46:41;7.15;;;4.70;;
66112;SDS011;52893;52.870;5.822;2023-05-10T12:49:09;8.43;;;5.38;;
66112;SDS011;52893;52.870;5.822;2023-05-10T12:51:36;8.48;;;5.03;;
66112;SDS011;52893;52.870;5.822;2023-05-10T12:54:03;5.88;;;4.43;;
66112;SDS011;52893;52.870;5.822;2023-05-10T12:56:30;5.53;;;4.05;;
66112;SDS011;52893;52.870;5.822;2023-05-10T12:58:59;6.82;;;5.32;;
66112;SDS011;52893;52.870;5.822;2023-05-10T13:01:26;8.23;;;4.55;;
66112;SDS011;52893;52.870;5.822;2023-05-10T13:03:53;6.35;;;4.65;;
66112;SDS011;52893;52.870;5.822;2023-05-10T13:06:20;8.10;;;5.53;;
66112;SDS011;52893;52.870;5.822;2023-05-10T13:08:48;9.98;;;6.22;;
66112;SDS011;52893;52.870;5.822;2023-05-10T13:11:15;7.32;;;4.85;;
66112;SDS011;52893;52.870;5.822;2023-05-10T13:13:42;9.13;;;5.40;;
66112;SDS011;52893;52.870;5.822;2023-05-10T13:16:11;13.88;;;6.90;;
66112;SDS011;52893;52.870;5.822;2023-05-10T13:18:38;9.25;;;5.95;;
66112;SDS011;52893;52.870;5.822;2023-05-10T13:21:05;7.82;;;5.10;;
66112;SDS011;52893;52.870;5.822;2023-05-10T13:23:33;6.50;;;4.00;;
66112;SDS011;52893;52.870;5.822;2023-05-10T13:26:00;8.10;;;4.30;;
66112;SDS011;52893;52.870;5.822;2023-05-10T13:28:28;6.70;;;3.75;;
66112;SDS011;52893;52.870;5.822;2023-05-10T13:30:55;6.75;;;4.25;;
66112;SDS011;52893;52.870;5.822;2023-05-10T13:33:24;2.17;;;1.90;;
66112;SDS011;52893;52.870;5.822;2023-05-10T13:35:51;5.03;;;3.60;;
66112;SDS011;52893;52.870;5.822;2023-05-10T13:38:18;5.57;;;3.97;;
66112;SDS011;52893;52.870;5.822;2023-05-10T13:40:45;4.00;;;2.88;;
66112;SDS011;52893;52.870;5.822;2023-05-10T13:43:13;3.35;;;2.75;;
66112;SDS011;52893;52.870;5.822;2023-05-10T13:45:40;6.68;;;2.75;;
66112;SDS011;52893;52.870;5.822;2023-05-10T13:48:08;3.63;;;2.70;;
66112;SDS011;52893;52.870;5.822;2023-05-10T13:50:36;4.40;;;3.45;;
66112;SDS011;52893;52.870;5.822;2023-05-10T13:53:04;4.43;;;3.17;;
66112;SDS011;52893;52.870;5.822;2023-05-10T13:55:31;4.47;;;3.47;;
66112;SDS011;52893;52.870;5.822;2023-05-10T13:57:59;3.20;;;2.90;;
66112;SDS011;52893;52.870;5.822;2023-05-10T14:00:26;5.20;;;2.75;;
66112;SDS011;52893;52.870;5.822;2023-05-10T14:02:53;7.38;;;2.88;;
66112;SDS011;52893;52.870;5.822;2023-05-10T14:05:21;4.57;;;3.28;;
66112;SDS011;52893;52.870;5.822;2023-05-10T14:07:50;3.15;;;2.67;;
66112;SDS011;52893;52.870;5.822;2023-05-10T14:10:17;5.03;;;2.97;;
66112;SDS011;52893;52.870;5.822;2023-05-10T14:12:45;2.95;;;2.70;;
66112;SDS011;52893;52.870;5.822;2023-05-10T14:15:12;5.30;;;3.17;;
66112;SDS011;52893;52.870;5.822;2023-05-10T14:17:39;2.75;;;1.52;;
66112;SDS011;52893;52.870;5.822;2023-05-10T14:20:07;2.97;;;1.95;;
66112;SDS011;52893;52.870;5.822;2023-05-10T14:22:35;4.03;;;2.42;;
66112;SDS011;52893;52.870;5.822;2023-05-10T14:25:04;5.20;;;2.60;;
66112;SDS011;52893;52.870;5.822;2023-05-10T14:27:31;6.28;;;3.72;;
66112;SDS011;52893;52.870;5.822;2023-05-10T14:29:58;7.32;;;4.05;;
66112;SDS011;52893;52.870;5.822;2023-05-10T14:32:25;6.13;;;3.83;;
66112;SDS011;52893;52.870;5.822;2023-05-10T14:34:53;4.53;;;3.70;;
66112;SDS011;52893;52.870;5.822;2023-05-10T14:37:21;8.15;;;4.22;;
66112;SDS011;52893;52.870;5.822;2023-05-10T14:39:48;4.78;;;3.65;;
66112;SDS011;52893;52.870;5.822;2023-05-10T14:42:17;5.25;;;4.07;;
66112;SDS011;52893;52.870;5.822;2023-05-10T14:44:44;6.03;;;2.80;;
66112;SDS011;52893;52.870;5.822;2023-05-10T14:47:11;4.60;;;3.38;;
66112;SDS011;52893;52.870;5.822;2023-05-10T14:49:38;7.85;;;3.38;;